createdAt,value
2018-06-17T00:00:17.885Z,4.6
2018-06-17T00:02:17.680Z,3.9
2018-06-17T00:04:18.489Z,3.9
2018-06-17T00:06:17.618Z,3.7
2018-06-17T00:08:18.439Z,3.8
2018-06-17T00:10:17.684Z,3.5
2018-06-17T00:12:18.462Z,3.5
2018-06-17T00:14:18.251Z,3.9
2018-06-17T00:16:17.877Z,4.3
2018-06-17T00:18:17.726Z,3.8
2018-06-17T00:20:17.538Z,3.2
2018-06-17T00:22:18.341Z,3.9
2018-06-17T00:24:18.137Z,3.7
2018-06-17T00:26:17.629Z,4.3
2018-06-17T00:28:18.413Z,3.9
2018-06-17T00:30:18.259Z,4.2
2018-06-17T00:32:18.058Z,3.7
2018-06-17T00:34:17.819Z,3.6
2018-06-17T00:36:18.348Z,4.3
2018-06-17T00:38:18.132Z,4.3
2018-06-17T00:40:18.372Z,3.9
2018-06-17T00:42:18.129Z,4.1
2018-06-17T00:44:17.917Z,3.8
2018-06-17T00:46:18.404Z,3.8
2018-06-17T00:48:18.212Z,3.9
2018-06-17T00:50:18.023Z,3.9
2018-06-17T00:52:17.811Z,3.8
2018-06-17T00:54:17.562Z,4.7
2018-06-17T00:56:18.084Z,4.3
2018-06-17T00:58:17.856Z,4.5
2018-06-17T01:00:17.645Z,4.3
2018-06-17T01:02:18.413Z,4.4
2018-06-17T01:04:18.167Z,3.7
2018-06-17T01:06:17.650Z,4.4
2018-06-17T01:08:18.447Z,4.3
2018-06-17T01:10:17.692Z,4.2
2018-06-17T01:12:18.482Z,3.6
2018-06-17T01:14:18.307Z,4.2
2018-06-17T01:16:17.797Z,5
2018-06-17T01:18:17.654Z,3.6
2018-06-17T01:20:18.450Z,3.8
2018-06-17T01:22:18.227Z,4.6
2018-06-17T01:24:18.033Z,3.9
2018-06-17T01:26:18.500Z,4.5
2018-06-17T01:28:18.258Z,4.5
2018-06-17T01:30:18.047Z,4.7
2018-06-17T01:32:17.835Z,4.1
2018-06-17T01:34:17.652Z,4.1
2018-06-17T01:36:18.158Z,4.1
2018-06-17T01:38:17.914Z,4.3
2018-06-17T01:40:18.235Z,3.9
2018-06-17T01:42:18.014Z,4.3
2018-06-17T01:44:17.774Z,4.3
2018-06-17T01:46:18.276Z,4.2
2018-06-17T01:48:18.057Z,4
2018-06-17T01:50:17.832Z,4.2
2018-06-17T01:52:17.623Z,4.4
2018-06-17T01:54:18.414Z,4.7
2018-06-17T01:56:17.946Z,4.4
2018-06-17T01:58:17.740Z,4.1
2018-06-17T02:00:17.528Z,4.5
2018-06-17T02:02:18.311Z,3.9
2018-06-17T02:04:18.083Z,4.5
2018-06-17T02:06:17.645Z,4.3
2018-06-17T02:08:18.430Z,4.4
2018-06-17T02:10:17.699Z,4.1
2018-06-17T02:12:18.484Z,5.1
2018-06-17T02:14:18.273Z,4.7
2018-06-17T02:16:18.285Z,5.4
2018-06-17T02:18:18.102Z,4.5
2018-06-17T02:20:17.887Z,4.6
2018-06-17T02:22:17.689Z,5
2018-06-17T02:24:18.466Z,4.9
2018-06-17T02:26:17.988Z,5.3
2018-06-17T02:28:17.748Z,4.9
2018-06-17T02:30:17.540Z,3.9
2018-06-17T02:32:18.383Z,4.7
2018-06-17T02:34:18.193Z,5.2
2018-06-17T02:36:18.241Z,4.8
2018-06-17T02:38:17.982Z,4.6
2018-06-17T02:40:18.240Z,4.5
2018-06-17T02:42:18.023Z,5
2018-06-17T02:44:17.804Z,5.1
2018-06-17T02:46:18.360Z,4.1
2018-06-17T02:48:18.153Z,5.6
2018-06-17T02:50:17.946Z,5.2
2018-06-17T02:52:17.722Z,4.8
2018-06-17T02:54:17.503Z,4.8
2018-06-17T02:56:18.000Z,4.8
2018-06-17T02:58:17.794Z,5.4
2018-06-17T03:00:18.601Z,5.8
2018-06-17T03:02:18.405Z,5.1
2018-06-17T03:04:18.250Z,6.5
2018-06-17T03:06:17.802Z,5.1
2018-06-17T03:08:17.611Z,4.5
2018-06-17T03:10:17.851Z,5.2
2018-06-17T03:12:17.614Z,4
2018-06-17T03:14:18.389Z,5
2018-06-17T03:16:17.873Z,5.8
2018-06-17T03:18:17.735Z,4.7
2018-06-17T03:20:17.534Z,4.9
2018-06-17T03:22:18.331Z,4.6
2018-06-17T03:24:18.117Z,5.3
2018-06-17T03:26:17.687Z,5.1
2018-06-17T03:28:18.473Z,4.9
2018-06-17T03:30:18.261Z,5
2018-06-17T03:32:18.044Z,5.3
2018-06-17T03:34:17.838Z,5.2
2018-06-17T03:36:18.337Z,4.2
2018-06-17T03:38:18.105Z,6.2
2018-06-17T03:40:18.432Z,4.8
2018-06-17T03:42:18.254Z,5.8
2018-06-17T03:44:18.004Z,4.9
2018-06-17T03:46:17.562Z,6.1
2018-06-17T03:48:18.345Z,5.2
2018-06-17T03:50:18.146Z,5.4
2018-06-17T03:52:17.921Z,5.3
2018-06-17T03:54:17.707Z,5.1
2018-06-17T03:56:18.210Z,5.9
2018-06-17T03:58:18.976Z,5.3
2018-06-17T04:00:17.792Z,5.2
2018-06-17T04:02:17.626Z,5.9
2018-06-17T04:04:18.416Z,5.7
2018-06-17T04:06:17.940Z,4.9
2018-06-17T04:08:17.726Z,5.7
2018-06-17T04:10:18.050Z,4.9
2018-06-17T04:12:18.879Z,5
2018-06-17T04:14:18.650Z,5
2018-06-17T04:16:18.172Z,5
2018-06-17T04:18:18.050Z,5.6
2018-06-17T04:20:18.867Z,5.5
2018-06-17T04:22:18.393Z,5.7
2018-06-17T04:24:18.197Z,5.5
2018-06-17T04:26:18.315Z,5.8
2018-06-17T04:28:18.092Z,5.3
2018-06-17T04:30:17.897Z,5.9
2018-06-17T04:32:17.690Z,4.7
2018-06-17T04:34:18.477Z,6
2018-06-17T04:36:18.631Z,5.3
2018-06-17T04:38:18.403Z,5.4
2018-06-17T04:40:17.805Z,5.4
2018-06-17T04:42:17.606Z,5.9
2018-06-17T04:44:18.393Z,6
2018-06-17T04:46:17.935Z,5.6
2018-06-17T04:48:17.717Z,6.4
2018-06-17T04:50:18.544Z,5.4
2018-06-17T04:52:18.353Z,6.3
2018-06-17T04:54:18.148Z,6.4
2018-06-17T04:56:17.686Z,6.1
2018-06-17T04:58:18.496Z,5
2018-06-17T05:00:18.300Z,5
2018-06-17T05:02:18.070Z,5.4
2018-06-17T05:04:17.845Z,4.9
2018-06-17T05:06:18.432Z,4.4
2018-06-17T05:08:18.216Z,4.7
2018-06-17T05:10:18.437Z,4.8
2018-06-17T05:12:18.225Z,4.5
2018-06-17T05:14:18.012Z,4.7
2018-06-17T05:16:18.061Z,4.6
2018-06-17T05:18:17.926Z,4.6
2018-06-17T05:20:17.750Z,4.8
2018-06-17T05:22:17.579Z,4.4
2018-06-17T05:24:18.387Z,4.4
2018-06-17T05:26:17.911Z,4.8
2018-06-17T05:28:17.692Z,3.8
2018-06-17T05:30:18.478Z,5.4
2018-06-17T05:32:18.268Z,4.9
2018-06-17T05:34:18.061Z,4.9
2018-06-17T05:36:17.562Z,5
2018-06-17T05:38:18.379Z,4.2
2018-06-17T05:40:17.638Z,4.7
2018-06-17T05:42:18.417Z,5.2
2018-06-17T05:44:18.208Z,5.7
2018-06-17T05:46:18.271Z,4.5
2018-06-17T05:48:18.050Z,5
2018-06-17T05:50:17.851Z,4.3
2018-06-17T05:52:17.613Z,4.9
2018-06-17T05:54:19.424Z,4.6
2018-06-17T05:56:18.015Z,4.3
2018-06-17T05:58:17.792Z,5.2
2018-06-17T06:00:17.590Z,3.9
2018-06-17T06:02:18.372Z,3.9
2018-06-17T06:04:18.148Z,4.7
2018-06-17T06:06:18.163Z,4
2018-06-17T06:08:17.953Z,4.2
2018-06-17T06:10:18.232Z,4.3
2018-06-17T06:12:18.087Z,3.8
2018-06-17T06:14:17.865Z,4.3
2018-06-17T06:16:18.378Z,4.3
2018-06-17T06:18:18.268Z,3.9
2018-06-17T06:20:18.074Z,3.6
2018-06-17T06:22:17.865Z,5.2
2018-06-17T06:24:17.635Z,4.1
2018-06-17T06:26:18.366Z,4.4
2018-06-17T06:28:18.195Z,2.9
2018-06-17T06:30:18.093Z,3.5
2018-06-17T06:32:17.857Z,3.7
2018-06-17T06:34:17.647Z,3.8
2018-06-17T06:36:17.731Z,3
2018-06-17T06:38:17.540Z,4.5
2018-06-17T06:40:17.816Z,3.8
2018-06-17T06:42:17.619Z,3.3
2018-06-17T06:44:18.419Z,3.9
2018-06-17T06:46:18.186Z,4.2
2018-06-17T06:48:18.492Z,3.5
2018-06-17T06:50:18.315Z,3.3
2018-06-17T06:52:18.133Z,3.9
2018-06-17T06:54:17.945Z,3.9
2018-06-17T06:56:18.186Z,4.2
2018-06-17T06:58:18.003Z,2.9
2018-06-17T07:00:17.830Z,3.6
2018-06-17T07:02:17.643Z,2.9
2018-06-17T07:04:18.412Z,4
2018-06-17T07:06:17.963Z,4.2
2018-06-17T07:08:17.762Z,3.7
2018-06-17T07:10:18.055Z,3.8
2018-06-17T07:12:17.882Z,3.7
2018-06-17T07:14:17.718Z,3.1
2018-06-17T07:16:17.862Z,3.9
2018-06-17T07:18:17.719Z,3
2018-06-17T07:20:17.556Z,3.3
2018-06-17T07:22:18.393Z,3.3
2018-06-17T07:24:18.205Z,3.4
2018-06-17T07:26:18.059Z,3.4
2018-06-17T07:28:17.879Z,2.8
2018-06-17T07:30:17.740Z,4.1
2018-06-17T07:32:17.535Z,3.7
2018-06-17T07:34:18.326Z,3.7
2018-06-17T07:36:17.930Z,3.7
2018-06-17T07:38:17.733Z,3.5
2018-06-17T07:40:18.020Z,4.5
2018-06-17T07:42:17.813Z,3.1
2018-06-17T07:44:17.614Z,3.5
2018-06-17T07:46:18.138Z,3.1
2018-06-17T07:48:17.961Z,3.6
2018-06-17T07:50:17.769Z,3.6
2018-06-17T07:52:17.584Z,3.1
2018-06-17T07:54:18.367Z,3.6
2018-06-17T07:56:17.921Z,4.1
2018-06-17T07:58:17.704Z,2.6
2018-06-17T08:00:18.522Z,2.8
2018-06-17T08:02:18.328Z,3.1
2018-06-17T08:04:18.132Z,2.5
2018-06-17T08:06:17.772Z,2.6
2018-06-17T08:08:17.577Z,2.7
2018-06-17T08:10:17.920Z,2
2018-06-17T08:12:17.712Z,2.9
2018-06-17T08:14:18.516Z,2.3
2018-06-17T08:16:18.144Z,2.3
2018-06-17T08:18:18.002Z,2.7
2018-06-17T08:20:17.877Z,2.3
2018-06-17T08:22:17.842Z,2.5
2018-06-17T08:24:17.675Z,2.2
2018-06-17T08:26:17.859Z,1.9
2018-06-17T08:28:17.652Z,2.7
2018-06-17T08:30:18.477Z,2.1
2018-06-17T08:32:18.291Z,1.7
2018-06-17T08:34:18.084Z,1.9
2018-06-17T08:36:17.667Z,1.5
2018-06-17T08:38:18.470Z,2.6
2018-06-17T08:40:17.775Z,2.1
2018-06-17T08:42:17.559Z,2.3
2018-06-17T08:44:18.380Z,2.2
2018-06-17T08:46:17.983Z,2.3
2018-06-17T08:48:17.774Z,2.1
2018-06-17T08:50:17.576Z,1.9
2018-06-17T08:52:18.359Z,1.5
2018-06-17T08:54:18.188Z,2
2018-06-17T08:56:18.441Z,1.5
2018-06-17T08:58:18.265Z,1.2
2018-06-17T09:00:18.117Z,1.2
2018-06-17T09:02:18.093Z,1.6
2018-06-17T09:04:17.880Z,1.8
2018-06-17T09:06:18.452Z,1.2
2018-06-17T09:08:18.224Z,1.2
2018-06-17T09:10:18.498Z,1.4
2018-06-17T09:12:18.298Z,1.7
2018-06-17T09:14:18.163Z,1.6
2018-06-17T09:16:17.714Z,1
2018-06-17T09:18:17.598Z,1.2
2018-06-17T09:20:18.425Z,1.5
2018-06-17T09:22:18.220Z,2.1
2018-06-17T09:24:18.018Z,1.1
2018-06-17T09:26:17.556Z,1.2
2018-06-17T09:28:18.344Z,0.7
2018-06-17T09:30:18.134Z,0.9
2018-06-17T09:32:17.957Z,1
2018-06-17T09:34:17.962Z,1.1
2018-06-17T09:36:17.556Z,0.9
2018-06-17T09:38:18.357Z,1.1
2018-06-17T09:40:17.648Z,1.2
2018-06-17T09:42:18.446Z,1
2018-06-17T09:44:18.263Z,1
2018-06-17T09:46:18.446Z,1.4
2018-06-17T09:48:18.291Z,1.1
2018-06-17T09:50:18.098Z,0.8
2018-06-17T09:52:17.918Z,1
2018-06-17T09:54:17.723Z,1.4
2018-06-17T09:56:18.237Z,1.3
2018-06-17T09:58:18.005Z,1.6
2018-06-17T10:00:17.819Z,0.9
2018-06-17T10:02:17.623Z,0.9
2018-06-17T10:04:18.432Z,1.5
2018-06-17T10:06:17.962Z,1.2
2018-06-17T10:08:17.760Z,1.2
2018-06-17T10:10:18.105Z,1.5
2018-06-17T10:12:17.909Z,1
2018-06-17T10:14:17.709Z,1
2018-06-17T10:16:18.253Z,1.7
2018-06-17T10:18:18.131Z,1.1
2018-06-17T10:20:17.986Z,1.1
2018-06-17T10:22:17.813Z,1.4
2018-06-17T10:24:17.646Z,1.8
2018-06-17T10:26:18.276Z,1.2
2018-06-17T10:28:18.091Z,1
2018-06-17T10:30:17.904Z,1.2
2018-06-17T10:32:17.736Z,1
2018-06-17T10:34:17.560Z,1.1
2018-06-17T10:36:18.131Z,1.6
2018-06-17T10:38:17.937Z,1.6
2018-06-17T10:40:18.229Z,1
2018-06-17T10:42:18.040Z,1.9
2018-06-17T10:44:17.892Z,1.5
2018-06-17T10:46:18.500Z,1.9
2018-06-17T10:48:18.317Z,1.6
2018-06-17T10:50:18.206Z,1.5
2018-06-17T10:52:18.041Z,1.4
2018-06-17T10:54:17.864Z,1.1
2018-06-17T10:56:18.470Z,1.6
2018-06-17T10:58:18.500Z,1.3
2018-06-17T11:00:18.359Z,1.6
2018-06-17T11:02:18.183Z,1.5
2018-06-17T11:04:17.954Z,1.2
2018-06-17T11:06:18.041Z,2
2018-06-17T11:08:17.830Z,1.7
2018-06-17T11:10:18.089Z,1.7
2018-06-17T11:12:17.897Z,2.1
2018-06-17T11:14:17.680Z,1.5
2018-06-17T11:16:17.808Z,2.3
2018-06-17T11:18:17.695Z,1.9
2018-06-17T11:20:18.528Z,2
2018-06-17T11:22:18.369Z,2
2018-06-17T11:24:18.185Z,1.7
2018-06-17T11:26:17.838Z,2.4
2018-06-17T11:28:17.647Z,2
2018-06-17T11:30:18.485Z,2.1
2018-06-17T11:32:18.308Z,2
2018-06-17T11:34:18.120Z,1.8
2018-06-17T11:36:18.275Z,1.6
2018-06-17T11:38:18.099Z,1.7
2018-06-17T11:40:18.354Z,2.1
2018-06-17T11:42:18.179Z,2.1
2018-06-17T11:44:18.017Z,2.2
2018-06-17T11:46:17.703Z,1.9
2018-06-17T11:48:18.495Z,2
2018-06-17T11:50:18.320Z,2.8
2018-06-17T11:52:18.151Z,2.2
2018-06-17T11:54:17.937Z,2.1
2018-06-17T11:56:18.106Z,2.4
2018-06-17T11:58:17.884Z,1.8
2018-06-17T12:00:17.726Z,2.4
2018-06-17T12:02:17.553Z,1.9
2018-06-17T12:04:18.357Z,2.5
2018-06-17T12:06:18.469Z,1.7
2018-06-17T12:08:18.264Z,2.2
2018-06-17T12:10:17.542Z,2.2
2018-06-17T12:12:18.350Z,1.8
2018-06-17T12:14:18.137Z,2
2018-06-17T12:16:17.665Z,2.3
2018-06-17T12:18:17.584Z,1.7
2018-06-17T12:20:18.417Z,2
2018-06-17T12:22:18.238Z,2.1
2018-06-17T12:24:18.041Z,2.2
2018-06-17T12:26:18.113Z,2.7
2018-06-17T12:28:17.907Z,1.4
2018-06-17T12:30:17.727Z,2.1
2018-06-17T12:32:17.553Z,2.2
2018-06-17T12:34:18.365Z,2.5
2018-06-17T12:36:17.917Z,1.8
2018-06-17T12:38:17.742Z,1.5
2018-06-17T12:40:18.020Z,1.4
2018-06-17T12:42:17.797Z,2.4
2018-06-17T12:44:17.618Z,2
2018-06-17T12:46:18.175Z,1.8
2018-06-17T12:48:17.977Z,2.4
2018-06-17T12:50:17.803Z,2.4
2018-06-17T12:52:17.651Z,2.7
2018-06-17T12:54:18.469Z,2.4
2018-06-17T12:56:18.547Z,1.7
2018-06-17T12:58:18.390Z,1.6
2018-06-17T13:00:18.211Z,2.7
2018-06-17T13:02:18.038Z,2
2018-06-17T13:04:17.852Z,1.5
2018-06-17T13:06:17.907Z,2.2
2018-06-17T13:08:17.700Z,1.7
2018-06-17T13:10:18.061Z,1.6
2018-06-17T13:12:17.849Z,2.2
2018-06-17T13:14:17.666Z,2.7
2018-06-17T13:16:18.246Z,1.5
2018-06-17T13:18:18.142Z,1.7
2018-06-17T13:20:18.017Z,2.5
2018-06-17T13:22:17.844Z,1.9
2018-06-17T13:24:17.670Z,1.9
2018-06-17T13:26:17.747Z,2.2
2018-06-17T13:28:17.562Z,1.9
2018-06-17T13:30:18.394Z,2.1
2018-06-17T13:32:18.241Z,1.6
2018-06-17T13:34:18.059Z,1.7
2018-06-17T13:36:17.642Z,2
2018-06-17T13:38:18.458Z,1.7
2018-06-17T13:40:17.763Z,1.3
2018-06-17T13:42:17.580Z,1.8
2018-06-17T13:44:18.385Z,2.4
2018-06-17T13:46:17.984Z,1.7
2018-06-17T13:48:17.818Z,1.2
2018-06-17T13:50:17.649Z,1.8
2018-06-17T13:52:18.495Z,1.5
2018-06-17T13:54:18.317Z,1.4
2018-06-17T13:56:18.462Z,1.4
2018-06-17T13:58:18.302Z,1.6
2018-06-17T14:00:18.120Z,0.9
2018-06-17T14:02:17.906Z,1.6
2018-06-17T14:04:17.715Z,1.3
2018-06-17T14:06:18.302Z,1.8
2018-06-17T14:08:18.118Z,1.3
2018-06-17T14:10:18.503Z,1.1
2018-06-17T14:12:18.364Z,0.8
2018-06-17T14:14:18.201Z,1.4
2018-06-17T14:16:18.356Z,0.8
2018-06-17T14:18:18.253Z,0.9
2018-06-17T14:20:18.045Z,0.8
2018-06-17T14:22:17.852Z,0.6
2018-06-17T14:24:17.650Z,1
2018-06-17T14:26:18.247Z,1.3
2018-06-17T14:28:18.051Z,0.5
2018-06-17T14:30:17.880Z,0.9
2018-06-17T14:32:17.722Z,0.9
2018-06-17T14:34:18.518Z,0.5
2018-06-17T14:36:18.095Z,1.1
2018-06-17T14:38:17.902Z,0.7
2018-06-17T14:40:18.165Z,0.9
2018-06-17T14:42:17.988Z,0.7
2018-06-17T14:44:17.846Z,0.6
2018-06-17T14:46:17.546Z,0.9
2018-06-17T14:48:18.380Z,0.5
2018-06-17T14:50:18.194Z,0.9
2018-06-17T14:52:18.033Z,0.7
2018-06-17T14:54:17.845Z,0.4
2018-06-17T14:56:18.485Z,0.8
2018-06-17T14:58:18.302Z,0.8
2018-06-17T15:00:18.095Z,0.5
2018-06-17T15:02:17.900Z,0.7
2018-06-17T15:04:17.700Z,0.4
2018-06-17T15:06:17.871Z,0.6
2018-06-17T15:08:17.669Z,0.8
2018-06-17T15:10:17.943Z,0.6
2018-06-17T15:12:17.735Z,0.4
2018-06-17T15:14:18.582Z,0.5
2018-06-17T15:16:18.247Z,0.4
2018-06-17T15:18:18.153Z,0.5
2018-06-17T15:20:18.251Z,0.6
2018-06-17T15:22:18.085Z,0.6
2018-06-17T15:24:17.918Z,0.7
2018-06-17T15:26:18.482Z,0.5
2018-06-17T15:28:18.295Z,0.3
2018-06-17T15:30:18.106Z,0.4
2018-06-17T15:32:17.928Z,0.5
2018-06-17T15:34:17.905Z,0.4
2018-06-17T15:36:18.036Z,0.5
2018-06-17T15:38:17.855Z,0.6
2018-06-17T15:40:18.153Z,0.3
2018-06-17T15:42:17.953Z,0.3
2018-06-17T15:44:17.808Z,0.6
2018-06-17T15:46:18.466Z,0.4
2018-06-17T15:48:18.294Z,0.4
2018-06-17T15:50:18.212Z,0.3
2018-06-17T15:52:17.998Z,0.3
2018-06-17T15:54:17.808Z,0.5
2018-06-17T15:56:18.366Z,0.3
2018-06-17T15:58:18.195Z,0.2
2018-06-17T16:00:18.017Z,0.5
2018-06-17T16:02:17.843Z,0.4
2018-06-17T16:04:17.656Z,0.5
2018-06-17T16:06:17.744Z,0.3
2018-06-17T16:08:17.551Z,0.3
2018-06-17T16:10:17.891Z,0.7
2018-06-17T16:12:17.734Z,0.3
2018-06-17T16:14:18.545Z,0.4
2018-06-17T16:16:17.638Z,0.2
2018-06-17T16:18:18.532Z,0.3
2018-06-17T16:20:18.511Z,0.4
2018-06-17T16:22:18.339Z,0.2
2018-06-17T16:24:18.145Z,0.4
2018-06-17T16:26:17.738Z,0.3
2018-06-17T16:28:17.558Z,0.3
2018-06-17T16:30:18.523Z,0.2
2018-06-17T16:32:18.326Z,0.4
2018-06-17T16:34:18.142Z,0.2
2018-06-17T16:36:17.705Z,0.3
2018-06-17T16:38:18.524Z,0.3
2018-06-17T16:40:17.831Z,0.3
2018-06-17T16:42:17.637Z,0.6
2018-06-17T16:44:18.447Z,0.3
2018-06-17T16:46:18.043Z,0.5
2018-06-17T16:48:17.850Z,0.2
2018-06-17T16:50:17.643Z,0.3
2018-06-17T16:52:18.459Z,0.4
2018-06-17T16:54:18.292Z,0.9
2018-06-17T16:56:18.391Z,0.4
2018-06-17T16:58:18.183Z,0.4
2018-06-17T17:00:18.065Z,0.6
2018-06-17T17:02:17.905Z,0.5
2018-06-17T17:04:17.715Z,0.7
2018-06-17T17:06:17.794Z,0.4
2018-06-17T17:08:17.603Z,0.5
2018-06-17T17:10:17.925Z,0.3
2018-06-17T17:12:17.738Z,0.5
2018-06-17T17:14:17.552Z,0.5
2018-06-17T17:16:17.615Z,0.2
2018-06-17T17:18:18.504Z,0.5
2018-06-17T17:20:18.353Z,0.6
2018-06-17T17:22:18.180Z,0.4
2018-06-17T17:24:17.994Z,0.6
2018-06-17T17:26:17.609Z,0.7
2018-06-17T17:28:18.430Z,0.4
2018-06-17T17:30:18.306Z,0.4
2018-06-17T17:32:18.101Z,0.4
2018-06-17T17:34:17.902Z,0.2
2018-06-17T17:36:18.053Z,0.5
2018-06-17T17:38:17.869Z,0.6
2018-06-17T17:40:18.244Z,0.8
2018-06-17T17:42:18.039Z,0.2
2018-06-17T17:44:17.832Z,0.7
2018-06-17T17:46:18.425Z,0.6
2018-06-17T17:48:18.226Z,0.8
2018-06-17T17:50:18.076Z,0.5
2018-06-17T17:52:17.886Z,0.7
2018-06-17T17:54:17.777Z,0.4
2018-06-17T17:56:18.427Z,0.6
2018-06-17T17:58:18.235Z,0.4
2018-06-17T18:00:18.049Z,0.6
2018-06-17T18:02:17.863Z,1.1
2018-06-17T18:04:17.655Z,0.4
2018-06-17T18:06:17.845Z,0.6
2018-06-17T18:08:17.654Z,0.6
2018-06-17T18:10:17.932Z,0.5
2018-06-17T18:12:17.729Z,0.6
2018-06-17T18:14:18.531Z,0.5
2018-06-17T18:16:17.604Z,0.7
2018-06-17T18:18:18.503Z,0.5
2018-06-17T18:20:18.316Z,0.5
2018-06-17T18:22:18.130Z,0.9
2018-06-17T18:24:17.924Z,0.5
2018-06-17T18:26:17.990Z,0.6
2018-06-17T18:28:17.795Z,0.5
2018-06-17T18:30:17.614Z,0.4
2018-06-17T18:32:18.450Z,0.4
2018-06-17T18:34:18.256Z,0.9
2018-06-17T18:36:17.944Z,0.5
2018-06-17T18:38:17.873Z,0.7
2018-06-17T18:40:18.140Z,0.7
2018-06-17T18:42:17.926Z,0.4
2018-06-17T18:44:17.733Z,0.4
2018-06-17T18:46:17.572Z,0.3
2018-06-17T18:48:18.419Z,0.5
2018-06-17T18:50:18.231Z,0.5
2018-06-17T18:52:18.016Z,0.5
2018-06-17T18:54:17.821Z,0.4
2018-06-17T18:56:18.199Z,0.6
2018-06-17T18:58:17.997Z,0.6
2018-06-17T19:00:17.802Z,1.1
2018-06-17T19:02:17.605Z,0.4
2018-06-17T19:04:18.414Z,0.5
2018-06-17T19:06:17.983Z,0.7
2018-06-17T19:08:17.794Z,0.5
2018-06-17T19:10:18.030Z,0.6
2018-06-17T19:12:17.835Z,0.4
2018-06-17T19:14:17.635Z,0.7
2018-06-17T19:16:17.752Z,0.6
2018-06-17T19:18:17.641Z,0.7
2018-06-17T19:20:18.478Z,0.6
2018-06-17T19:22:18.278Z,0.7
2018-06-17T19:24:18.086Z,0.9
2018-06-17T19:26:17.723Z,0.7
2018-06-17T19:28:17.552Z,0.4
2018-06-17T19:30:18.357Z,0.5
2018-06-17T19:32:18.163Z,0.8
2018-06-17T19:34:17.967Z,0.4
2018-06-17T19:36:18.019Z,0.4
2018-06-17T19:38:17.827Z,0.6
2018-06-17T19:40:18.082Z,0.4
2018-06-17T19:42:17.902Z,0.5
2018-06-17T19:44:17.683Z,0.4
2018-06-17T19:46:18.338Z,0.6
2018-06-17T19:48:18.321Z,0.7
2018-06-17T19:50:18.153Z,0.7
2018-06-17T19:52:17.982Z,0.8
2018-06-17T19:54:17.825Z,0.8
2018-06-17T19:56:18.398Z,0.4
2018-06-17T19:58:18.236Z,0.4
2018-06-17T20:00:18.034Z,0.6
2018-06-17T20:02:17.853Z,0.6
2018-06-17T20:04:17.680Z,0.6
2018-06-17T20:06:18.427Z,1.1
2018-06-17T20:08:18.385Z,0.5
2018-06-17T20:10:17.667Z,0.7
2018-06-17T20:12:18.444Z,0.9
2018-06-17T20:14:18.261Z,1.6
2018-06-17T20:16:18.531Z,1
2018-06-17T20:18:18.431Z,0.7
2018-06-17T20:20:18.249Z,0.6
2018-06-17T20:22:18.074Z,1.1
2018-06-17T20:24:17.879Z,0.9
2018-06-17T20:26:18.526Z,0.5
2018-06-17T20:28:18.329Z,0.6
2018-06-17T20:30:18.140Z,0.6
2018-06-17T20:32:17.941Z,0.4
2018-06-17T20:34:17.735Z,0.5
2018-06-17T20:36:18.246Z,0.7
2018-06-17T20:38:18.039Z,0.5
2018-06-17T20:40:18.328Z,0.6
2018-06-17T20:42:18.176Z,0.5
2018-06-17T20:44:18.066Z,1
2018-06-17T20:46:17.644Z,0.7
2018-06-17T20:48:18.468Z,0.7
2018-06-17T20:50:18.274Z,0.8
2018-06-17T20:52:18.085Z,1.3
2018-06-17T20:54:17.883Z,1.9
2018-06-17T20:56:18.468Z,2.3
2018-06-17T20:58:18.261Z,1.8
2018-06-17T21:00:18.094Z,1.5
2018-06-17T21:02:17.888Z,1.1
2018-06-17T21:04:17.674Z,1
2018-06-17T21:06:18.257Z,0.8
2018-06-17T21:08:18.056Z,0.8
2018-06-17T21:10:18.313Z,1
2018-06-17T21:12:18.142Z,0.6
2018-06-17T21:14:17.951Z,0.9
2018-06-17T21:16:18.536Z,0.6
2018-06-17T21:18:18.411Z,0.8
2018-06-17T21:20:18.221Z,0.9
2018-06-17T21:22:18.022Z,0.7
2018-06-17T21:24:17.847Z,1
2018-06-17T21:26:17.589Z,0.6
2018-06-17T21:28:18.402Z,0.7
2018-06-17T21:30:18.223Z,0.9
2018-06-17T21:32:18.021Z,0.9
2018-06-17T21:34:17.835Z,0.9
2018-06-17T21:36:17.991Z,0.8
2018-06-17T21:38:17.801Z,1
2018-06-17T21:40:18.109Z,0.8
2018-06-17T21:42:17.895Z,0.9
2018-06-17T21:44:17.704Z,0.9
2018-06-17T21:46:18.275Z,1
2018-06-17T21:48:18.064Z,1.1
2018-06-17T21:50:17.889Z,1.4
2018-06-17T21:52:17.714Z,0.8
2018-06-17T21:54:18.496Z,1
2018-06-17T21:56:18.100Z,1
2018-06-17T21:58:17.919Z,0.8
2018-06-17T22:00:17.712Z,0.9
2018-06-17T22:02:18.495Z,0.7
2018-06-17T22:04:18.290Z,0.9
2018-06-17T22:06:17.922Z,1.2
2018-06-17T22:08:17.731Z,1.6
2018-06-17T22:10:17.998Z,1
2018-06-17T22:12:17.789Z,0.9
2018-06-17T22:14:17.560Z,0.9
2018-06-17T22:16:18.114Z,0.7
2018-06-17T22:18:18.002Z,0.8
2018-06-17T22:20:17.827Z,0.8
2018-06-17T22:22:17.615Z,0.9
2018-06-17T22:24:18.408Z,0.9
2018-06-17T22:26:17.956Z,1.1
2018-06-17T22:28:18.747Z,0.7
2018-06-17T22:30:17.564Z,1.2
2018-06-17T22:32:18.366Z,0.5
2018-06-17T22:34:18.159Z,0.9
2018-06-17T22:36:17.696Z,0.8
2018-06-17T22:38:18.487Z,0.8
2018-06-17T22:40:17.842Z,0.8
2018-06-17T22:42:17.684Z,0.8
2018-06-17T22:44:18.480Z,1.1
2018-06-17T22:46:17.615Z,1.1
2018-06-17T22:48:18.433Z,0.9
2018-06-17T22:50:18.278Z,0.8
2018-06-17T22:52:18.062Z,1.5
2018-06-17T22:54:17.856Z,0.9
2018-06-17T22:56:18.946Z,0.8
2018-06-17T22:58:18.748Z,1.2
2018-06-17T23:00:17.535Z,1
2018-06-17T23:02:18.101Z,1.1
2018-06-17T23:04:18.904Z,1
2018-06-17T23:06:18.023Z,1.1
2018-06-17T23:08:17.824Z,0.8
2018-06-17T23:10:19.228Z,0.8
2018-06-17T23:12:18.019Z,0.9
2018-06-17T23:14:17.807Z,1
2018-06-17T23:16:18.432Z,0.8
2018-06-17T23:18:18.306Z,1.9
2018-06-17T23:20:19.109Z,1
2018-06-17T23:22:17.911Z,1.4
2018-06-17T23:24:17.701Z,1.1
2018-06-17T23:26:17.806Z,0.7
2018-06-17T23:28:17.614Z,1
2018-06-17T23:30:19.417Z,0.8
2018-06-17T23:32:18.263Z,0.9
2018-06-17T23:34:19.061Z,1
2018-06-17T23:36:18.593Z,0.9
2018-06-17T23:38:18.411Z,1.1
2018-06-17T23:40:17.661Z,0.7
2018-06-17T23:42:19.466Z,0.6
2018-06-17T23:44:18.252Z,0.9
2018-06-17T23:46:17.919Z,0.9
2018-06-17T23:48:17.725Z,1.9
2018-06-17T23:50:17.556Z,0.8
2018-06-17T23:52:18.346Z,1.1
2018-06-17T23:54:19.143Z,0.8
2018-06-17T23:56:18.766Z,1.1
2018-06-17T23:58:17.565Z,0.9
